Time;durP1;ratioP1;P1;durP2;ratioP2;P2;SDS_P1;SDS_P2;PMS_P1;PMS_P2;Temp;Humidity;BMP_temperature;BMP_pressure;BME280_temperature;BME280_humidity;BME280_pressure;Samples;Min_cycle;Max_cycle;Signal;HPM_P1;HPM_P2
2022/11/25 00:00:53;;;;;;;;;5.00;3.67;;;;;13.03;72.58;100472.75;2094527;28;47507;-61
2022/11/25 00:01:53;;;;;;;;;5.33;5.00;;;;;13.02;72.59;100470.16;2097426;28;46336;-61
2022/11/25 00:02:53;;;;;;;;;5.67;5.67;;;;;13.01;72.77;100471.06;2094742;28;46209;-62
2022/11/25 00:03:55;;;;;;;;;4.67;4.67;;;;;13.02;72.89;100472.81;2097035;28;45653;-61
2022/11/25 00:04:55;;;;;;;;;5.75;3.25;;;;;13.03;72.75;100479.88;2094794;28;46492;-61
2022/11/25 00:05:56;;;;;;;;;7.67;6.00;;;;;13.01;72.68;100477.28;2096995;28;46880;-62
2022/11/25 00:06:56;;;;;;;;;4.00;4.00;;;;;13.03;72.55;100483.41;2094629;28;46627;-61
2022/11/25 00:07:56;;;;;;;;;7.00;3.67;;;;;13.03;72.75;100482.53;2096587;28;46442;-61
2022/11/25 00:08:59;;;;;;;;;7.00;5.33;;;;;13.04;72.69;100487.81;2094688;28;46617;-61
2022/11/25 00:09:59;;;;;;;;;6.00;4.00;;;;;13.05;72.77;100486.00;2097142;28;47465;-62
2022/11/25 00:11:00;;;;;;;;;6.00;6.00;;;;;13.06;72.53;100485.09;2094692;28;46386;-59
2022/11/25 00:12:01;;;;;;;;;6.50;4.50;;;;;13.05;72.45;100481.56;2097188;28;46616;-61
2022/11/25 00:13:01;;;;;;;;;7.00;6.00;;;;;13.05;72.62;100486.88;2093773;28;46299;-62
2022/11/25 00:14:02;;;;;;;;;6.33;4.67;;;;;13.05;72.21;100478.88;2095351;28;46441;-61
2022/11/25 00:15:03;;;;;;;;;5.00;3.75;;;;;13.05;72.18;100478.03;2092813;28;46509;-63
2022/11/25 00:16:11;;;;;;;;;4.00;4.00;;;;;13.04;72.33;100473.63;2090969;28;46402;-60
2022/11/25 00:17:11;;;;;;;;;6.25;4.00;;;;;13.05;72.63;100465.56;2088704;28;46466;-60
2022/11/25 00:18:11;;;;;;;;;3.67;3.67;;;;;13.07;72.61;100463.72;2094915;28;46454;-60
2022/11/25 00:19:12;;;;;;;;;4.00;4.00;;;;;13.07;72.48;100471.72;2095341;28;46882;-61
2022/11/25 00:20:12;;;;;;;;;3.00;3.00;;;;;13.07;72.28;100469.03;2095711;28;46408;-62
2022/11/25 00:21:16;;;;;;;;;5.00;5.00;;;;;13.08;72.41;100475.25;2095220;28;46958;-62
2022/11/25 00:22:16;;;;;;;;;8.75;5.25;;;;;13.07;72.43;100470.84;2095341;28;46475;-60
2022/11/25 00:23:17;;;;;;;;;4.67;3.67;;;;;13.09;72.33;100477.00;2095817;28;46560;-60
2022/11/25 00:24:17;;;;;;;;;3.67;3.67;;;;;13.10;72.30;100484.94;2095730;28;46514;-62
2022/11/25 00:25:17;;;;;;;;;5.00;3.33;;;;;13.11;72.32;100485.81;2095732;28;46360;-60
2022/11/25 00:26:18;;;;;;;;;6.00;4.33;;;;;13.12;72.40;100484.88;2095293;28;47016;-61
2022/11/25 00:27:19;;;;;;;;;3.00;3.00;;;;;13.13;72.35;100486.63;2094861;28;46264;-61
2022/11/25 00:28:19;;;;;;;;;2.00;2.00;;;;;13.12;72.03;100483.09;2090648;28;46273;-60
2022/11/25 00:29:19;;;;;;;;;2.33;2.33;;;;;13.11;72.23;100484.03;2096045;28;46474;-60
2022/11/25 00:30:20;;;;;;;;;4.00;4.00;;;;;13.12;72.09;100480.44;2100013;28;46574;-61
2022/11/25 00:31:23;;;;;;;;;6.00;4.33;;;;;13.13;72.00;100481.28;2088509;28;46883;-62
2022/11/25 00:32:23;;;;;;;;;4.75;3.75;;;;;13.14;72.28;100489.22;2086513;28;46687;-61
2022/11/25 00:33:23;;;;;;;;;4.00;2.33;;;;;13.16;72.20;100486.50;2092304;28;46477;-61
2022/11/25 00:34:24;;;;;;;;;6.33;4.33;;;;;13.18;72.10;100493.53;2091406;28;46783;-60
2022/11/25 00:35:24;;;;;;;;;4.67;4.33;;;;;13.19;72.29;100494.41;2095522;28;46272;-61
2022/11/25 00:36:35;;;;;;;;;4.00;2.33;;;;;13.20;72.24;100499.69;2094378;28;46606;-58
2022/11/25 00:37:36;;;;;;;;;3.50;3.50;;;;;13.20;71.99;100491.69;2094585;28;47754;-59
2022/11/25 00:38:36;;;;;;;;;4.33;4.00;;;;;13.21;72.29;100489.91;2095253;28;46369;-59
2022/11/25 00:39:36;;;;;;;;;3.00;3.00;;;;;13.21;72.15;100488.13;2096365;28;46828;-62
2022/11/25 00:40:37;;;;;;;;;4.67;3.00;;;;;13.24;72.25;100487.16;2094400;28;46736;-63
2022/11/25 00:44:36;;;;;;;;;4.00;3.00;;;;;13.29;72.08;100494.97;2088239;28;46372;-61
2022/11/25 00:45:36;;;;;;;;;5.25;3.75;;;;;13.29;72.28;100489.63;2096297;28;46439;-61
2022/11/25 00:46:37;;;;;;;;;4.00;3.00;;;;;13.29;72.12;100492.28;2094784;28;46833;-59
2022/11/25 00:47:37;;;;;;;;;4.67;4.00;;;;;13.29;72.01;100492.28;2096516;28;46647;-61
2022/11/25 00:48:37;;;;;;;;;4.33;4.00;;;;;13.29;71.97;100492.28;2096217;28;46559;-62
2022/11/25 00:49:39;;;;;;;;;6.00;6.00;;;;;13.29;72.07;100492.28;2096465;28;45622;-59
2022/11/25 00:50:41;;;;;;;;;5.25;3.50;;;;;13.28;72.11;100491.44;2094565;28;46577;-61
2022/11/25 00:51:41;;;;;;;;;4.25;4.00;;;;;13.29;71.88;100497.63;2095891;28;47004;-61
2022/11/25 00:52:42;;;;;;;;;5.00;4.33;;;;;13.28;72.06;100491.44;2093672;28;46419;-61
2022/11/25 00:53:42;;;;;;;;;5.33;3.67;;;;;13.27;71.98;100489.69;2096620;28;46461;-61
2022/11/25 00:54:49;;;;;;;;;5.67;4.33;;;;;13.27;71.88;100488.81;2094382;28;46261;-61
2022/11/25 00:57:08;;;;;;;;;4.75;4.75;;;;;13.25;71.87;100497.75;2094479;28;46924;-60
2022/11/25 00:58:08;;;;;;;;;3.00;3.00;;;;;13.24;71.85;100500.47;2095154;28;46655;-60
2022/11/25 00:59:09;;;;;;;;;4.33;3.33;;;;;13.23;71.91;100496.94;2093601;28;46941;-60
2022/11/25 01:00:10;;;;;;;;;3.67;3.67;;;;;13.22;71.54;100497.88;2094590;28;46453;-60
2022/11/25 01:01:11;;;;;;;;;3.75;3.75;;;;;13.18;71.78;100501.53;2095382;28;46543;-61
2022/11/25 01:02:13;;;;;;;;;4.00;3.33;;;;;13.18;71.82;100498.88;2095485;28;46264;-60
2022/11/25 01:03:13;;;;;;;;;5.75;4.50;;;;;13.17;71.83;100501.56;2095798;28;47687;-61
2022/11/25 01:04:15;;;;;;;;;2.67;2.67;;;;;13.15;71.78;100493.63;2094067;28;46662;-63
2022/11/25 01:05:15;;;;;;;;;4.00;4.00;;;;;13.15;71.80;100501.63;2095736;28;46420;-60
2022/11/25 01:06:16;;;;;;;;;4.67;4.67;;;;;13.14;72.02;100494.56;2095179;28;46264;-63
2022/11/25 01:07:17;;;;;;;;;4.33;4.00;;;;;13.14;71.73;100501.69;2095529;28;46499;-60
2022/11/25 01:08:17;;;;;;;;;2.00;2.00;;;;;13.14;71.84;100499.03;2094698;28;46667;-59
2022/11/25 01:09:17;;;;;;;;;2.67;2.67;;;;;13.13;71.80;100498.16;2095740;28;46261;-59
2022/11/25 01:10:18;;;;;;;;;7.67;5.00;;;;;13.12;71.79;100504.41;2093983;28;46534;-61
2022/11/25 01:11:20;;;;;;;;;2.00;2.00;;;;;13.12;71.84;100506.19;2095303;28;46309;-60
2022/11/25 01:12:20;;;;;;;;;4.00;3.75;;;;;13.13;71.78;100513.25;2093152;28;46897;-61
2022/11/25 01:13:21;;;;;;;;;4.67;3.67;;;;;13.12;71.90;100512.41;2101422;27;46332;-60
2022/11/25 01:14:22;;;;;;;;;3.33;3.00;;;;;13.11;71.79;100512.47;2100990;27;46564;-60
2022/11/25 01:15:22;;;;;;;;;4.00;3.25;;;;;13.11;71.88;100512.47;2096190;28;46673;-62
2022/11/25 01:16:24;;;;;;;;;3.33;3.00;;;;;13.10;71.66;100516.91;2095257;28;46319;-59
2022/11/25 01:17:24;;;;;;;;;4.25;4.00;;;;;13.11;71.62;100517.78;2095563;28;46550;-60
2022/11/25 01:18:24;;;;;;;;;3.00;3.00;;;;;13.09;71.73;100520.50;2093813;28;46937;-61
2022/11/25 01:19:25;;;;;;;;;3.33;3.33;;;;;13.08;71.74;100516.06;2095778;28;46550;-61
2022/11/25 01:20:25;;;;;;;;;3.67;3.00;;;;;13.08;71.61;100525.84;2095078;28;46854;-59
2022/11/25 01:21:29;;;;;;;;;4.33;4.00;;;;;13.05;71.42;100518.84;2095919;28;46027;-60
2022/11/25 01:22:29;;;;;;;;;2.75;2.75;;;;;13.04;71.62;100519.78;2094415;28;46390;-61
2022/11/25 01:23:29;;;;;;;;;6.33;3.00;;;;;13.02;71.46;100523.44;2094586;28;46585;-60
2022/11/25 01:24:30;;;;;;;;;6.00;6.00;;;;;12.99;71.32;100524.41;2094374;28;45662;-60
2022/11/25 01:25:30;;;;;;;;;3.00;3.00;;;;;12.98;71.57;100528.00;2095379;28;46265;-61
2022/11/25 01:26:31;;;;;;;;;2.33;2.33;;;;;12.98;71.83;100525.34;2094088;28;46447;-61
2022/11/25 01:27:32;;;;;;;;;3.00;3.00;;;;;12.96;71.73;100524.53;2092016;28;46917;-60
2022/11/25 01:28:32;;;;;;;;;3.33;3.00;;;;;12.94;71.84;100529.88;2089815;28;45675;-60
2022/11/25 01:29:32;;;;;;;;;3.67;3.00;;;;;12.94;71.88;100534.34;2095010;28;46436;-60
2022/11/25 01:30:33;;;;;;;;;3.33;3.33;;;;;12.92;72.02;100533.53;2093960;28;47089;-60
2022/11/25 01:31:35;;;;;;;;;6.00;5.00;;;;;12.93;72.12;100535.25;2095628;28;46538;-61
2022/11/25 01:32:35;;;;;;;;;7.00;4.75;;;;;12.91;72.04;100537.97;2094719;28;46673;-57
2022/11/25 01:33:37;;;;;;;;;4.67;4.00;;;;;12.91;72.00;100547.75;2096107;28;46204;-59
2022/11/25 01:34:37;;;;;;;;;4.25;3.50;;;;;12.90;71.90;100546.91;2093290;28;46404;-59
2022/11/25 01:35:37;;;;;;;;;4.67;4.00;;;;;12.89;71.63;100553.16;2095366;28;46536;-59
2022/11/25 01:36:38;;;;;;;;;3.33;2.33;;;;;12.89;71.82;100547.81;2093202;28;46193;-60
2022/11/25 01:37:38;;;;;;;;;4.00;3.00;;;;;12.87;72.04;100547.00;2087742;28;46295;-59
2022/11/25 01:38:39;;;;;;;;;4.67;3.67;;;;;12.87;71.76;100559.44;2087806;28;46832;-61
2022/11/25 01:39:39;;;;;;;;;4.00;4.00;;;;;12.85;71.95;100562.16;2095071;28;45978;-62
2022/11/25 01:40:40;;;;;;;;;4.00;2.67;;;;;12.84;72.06;100567.56;2094614;28;46830;-61
2022/11/25 01:41:40;;;;;;;;;4.67;3.00;;;;;12.83;72.12;100566.69;2093361;28;46382;-61
2022/11/25 01:42:47;;;;;;;;;3.33;3.00;;;;;12.82;72.05;100564.91;2095754;28;46905;-59
2022/11/25 01:44:08;;;;;;;;;2.00;2.00;;;;;12.81;72.10;100568.50;2096401;28;46494;-61
2022/11/25 01:45:21;;;;;;;;;4.00;3.75;;;;;12.82;72.08;100572.03;2092849;28;47066;-60
2022/11/25 01:46:25;;;;;;;;;4.75;3.50;;;;;12.83;71.96;100573.78;2093298;28;46891;-61
2022/11/25 01:47:26;;;;;;;;;6.00;4.00;;;;;12.83;71.90;100572.00;2090894;28;46637;-60
2022/11/25 01:48:38;;;;;;;;;2.00;2.00;;;;;12.82;71.76;100578.22;2091049;28;46956;-58
2022/11/25 01:49:51;;;;;;;;;3.00;3.00;;;;;12.81;72.05;100581.81;2095437;28;46708;-61
2022/11/25 01:50:53;;;;;;;;;4.75;4.00;;;;;12.81;72.05;100578.28;2092140;28;46912;-61
2022/11/25 01:52:19;;;;;;;;;4.00;4.00;;;;;12.80;71.96;100584.53;2095486;28;46973;-62
2022/11/25 01:53:21;;;;;;;;;6.25;4.50;;;;;12.80;71.96;100584.53;2094701;28;46700;-61
2022/11/25 01:54:24;;;;;;;;;3.25;3.25;;;;;12.77;71.95;100582.84;2094877;28;46583;-58
2022/11/25 01:55:29;;;;;;;;;3.75;3.75;;;;;12.79;72.15;100582.78;2094995;28;46314;-60
2022/11/25 01:56:35;;;;;;;;;6.50;3.25;;;;;12.78;72.16;100579.25;2092390;28;46640;-59
2022/11/25 01:58:01;;;;;;;;;3.00;3.00;;;;;12.77;72.21;100580.19;2092725;28;46812;-61
2022/11/25 01:59:02;;;;;;;;;5.25;5.00;;;;;12.77;72.04;100571.31;2074437;28;46457;-61
2022/11/25 02:00:04;;;;;;;;;4.00;4.00;;;;;12.77;72.25;100581.97;2078216;28;46079;-59
2022/11/25 02:01:06;;;;;;;;;4.00;4.00;;;;;12.76;72.23;100581.09;2075771;28;46481;-57
2022/11/25 02:02:06;;;;;;;;;4.00;2.00;;;;;12.75;72.12;100581.16;2077766;28;46377;-60
2022/11/25 02:03:08;;;;;;;;;3.00;3.00;;;;;12.73;72.29;100581.22;2076344;28;46198;-60
2022/11/25 02:04:11;;;;;;;;;1.00;1.00;;;;;12.72;72.32;100582.13;2077948;28;46103;-60
2022/11/25 02:05:16;;;;;;;;;4.00;3.00;;;;;12.72;72.11;100582.13;2077033;28;46501;-60
2022/11/25 02:06:27;;;;;;;;;3.75;3.00;;;;;12.71;72.35;100587.50;2076996;28;46657;-60
2022/11/25 02:07:35;;;;;;;;;2.50;2.50;;;;;12.69;72.52;100590.19;2078497;28;46601;-60
2022/11/25 02:08:36;;;;;;;;;3.75;3.00;;;;;12.70;72.41;100593.72;2078217;28;46619;-59
2022/11/25 02:09:40;;;;;;;;;2.00;2.00;;;;;12.68;72.12;100586.66;2080768;28;46813;-61
2022/11/25 02:10:43;;;;;;;;;3.00;3.00;;;;;12.67;72.55;100590.25;2077360;28;46895;-59
2022/11/25 02:11:44;;;;;;;;;1.00;1.00;;;;;12.66;72.37;100595.63;2078063;28;46678;-60
2022/11/25 02:12:46;;;;;;;;;2.75;2.75;;;;;12.65;72.18;100600.09;2076788;28;45782;-60
2022/11/25 02:13:48;;;;;;;;;5.25;3.50;;;;;12.62;72.42;100589.53;2077924;28;46851;-60
2022/11/25 02:14:51;;;;;;;;;2.00;2.00;;;;;12.61;72.52;100593.13;2074330;28;46786;-61
2022/11/25 02:15:51;;;;;;;;;2.25;2.25;;;;;12.61;72.64;100595.78;2079786;28;46386;-61
2022/11/25 02:16:52;;;;;;;;;5.33;4.67;;;;;12.60;72.76;100607.38;2075803;28;46772;-61
2022/11/25 02:17:52;;;;;;;;;3.00;3.00;;;;;12.60;72.56;100603.84;2082106;28;45729;-58
2022/11/25 02:18:53;;;;;;;;;2.33;2.00;;;;;12.60;72.63;100602.03;2074993;28;45099;-59
2022/11/25 02:20:17;;;;;;;;;3.00;3.00;;;;;12.60;72.62;100599.38;2078428;28;46838;-60
2022/11/25 02:21:29;;;;;;;;;2.00;2.00;;;;;12.60;72.31;100601.16;2077036;28;46867;-60
2022/11/25 02:22:46;;;;;;;;;5.00;3.00;;;;;12.59;72.32;100597.63;2076895;28;46674;-60
2022/11/25 02:23:55;;;;;;;;;4.00;3.25;;;;;12.58;72.56;100603.00;2077935;28;46927;-61
2022/11/25 02:25:02;;;;;;;;;4.50;2.25;;;;;12.58;72.59;100595.03;2076205;28;46321;-60
2022/11/25 02:26:03;;;;;;;;;4.75;3.25;;;;;12.58;72.65;100597.69;2079122;28;46943;-60
2022/11/25 02:27:04;;;;;;;;;4.00;3.00;;;;;12.57;72.67;100602.09;2075989;28;45410;-62
2022/11/25 02:28:12;;;;;;;;;3.00;3.00;;;;;12.56;72.95;100602.16;2078697;28;46539;-59
2022/11/25 02:29:12;;;;;;;;;4.00;2.25;;;;;12.57;72.67;100603.91;2076850;28;46308;-60
2022/11/25 02:30:13;;;;;;;;;3.00;3.00;;;;;12.57;72.60;100609.22;2077384;28;46376;-59
2022/11/25 02:31:19;;;;;;;;;4.67;4.67;;;;;12.58;72.42;100613.66;2076392;28;46834;-62
2022/11/25 02:32:22;;;;;;;;;3.75;3.00;;;;;12.57;72.50;100611.88;2077227;28;46329;-58
2022/11/25 02:33:23;;;;;;;;;3.00;2.00;;;;;12.56;72.25;100621.66;2077173;28;46757;-60
2022/11/25 02:34:23;;;;;;;;;3.75;3.75;;;;;12.53;72.55;100618.25;2077030;28;46793;-60
2022/11/25 02:35:38;;;;;;;;;3.67;3.67;;;;;12.51;72.52;100615.63;2077861;28;46650;-61
2022/11/25 02:36:38;;;;;;;;;4.00;3.00;;;;;12.52;72.44;100619.16;2082083;28;46485;-60
2022/11/25 02:37:39;;;;;;;;;2.00;2.00;;;;;12.51;72.57;100625.41;2095359;28;46656;-59
2022/11/25 02:38:51;;;;;;;;;2.00;2.00;;;;;12.48;72.55;100618.41;2094419;28;46655;-57
2022/11/25 02:39:52;;;;;;;;;2.00;2.00;;;;;12.48;72.61;100626.38;2095042;28;46505;-60
2022/11/25 02:41:04;;;;;;;;;2.75;2.75;;;;;12.48;72.64;100620.19;2093761;28;46263;-59
2022/11/25 02:42:06;;;;;;;;;5.00;3.50;;;;;12.47;72.80;100627.31;2093435;28;46091;-59
2022/11/25 02:43:06;;;;;;;;;2.50;2.50;;;;;12.47;72.48;100631.75;2093627;28;45159;-60
2022/11/25 02:44:06;;;;;;;;;6.00;4.00;;;;;12.46;72.70;100635.34;2094497;28;46512;-58
2022/11/25 02:45:13;;;;;;;;;3.33;3.00;;;;;12.47;72.37;100634.41;2093958;28;46550;-58
2022/11/25 02:46:16;;;;;;;;;3.00;3.00;;;;;12.46;72.57;100635.34;2093315;28;46965;-60
2022/11/25 02:47:16;;;;;;;;;4.00;4.00;;;;;12.47;72.50;100639.75;2095782;28;46379;-60
2022/11/25 02:48:17;;;;;;;;;3.00;3.00;;;;;12.46;72.60;100630.88;2095769;28;46656;-61
2022/11/25 02:49:17;;;;;;;;;2.33;2.00;;;;;12.47;72.58;100637.94;2098546;28;46225;-61
2022/11/25 02:50:17;;;;;;;;;5.67;5.00;;;;;12.48;72.48;100623.72;2096428;28;46874;-60
2022/11/25 02:51:19;;;;;;;;;3.33;3.33;;;;;12.48;72.54;100638.81;2094549;28;46789;-59
2022/11/25 02:52:20;;;;;;;;;4.00;4.00;;;;;12.48;72.25;100628.16;2095930;28;46409;-60
2022/11/25 02:53:20;;;;;;;;;4.00;4.00;;;;;12.47;72.34;100637.06;2094764;28;46438;-60
2022/11/25 02:54:20;;;;;;;;;4.33;3.33;;;;;12.47;72.55;100639.75;2096847;28;46781;-61
2022/11/25 02:55:21;;;;;;;;;8.67;3.67;;;;;12.46;72.62;100641.53;2096128;28;46457;-60
2022/11/25 02:56:24;;;;;;;;;2.00;2.00;;;;;12.46;72.59;100638.88;2096265;28;46456;-59
2022/11/25 02:57:24;;;;;;;;;2.75;2.75;;;;;12.47;72.44;100645.94;2097420;28;46635;-61
2022/11/25 02:58:24;;;;;;;;;2.00;2.00;;;;;12.47;72.50;100637.06;2095579;28;46338;-62
2022/11/25 02:59:25;;;;;;;;;4.33;4.33;;;;;12.48;72.27;100646.81;2096396;28;46852;-60
2022/11/25 03:00:25;;;;;;;;;2.67;2.67;;;;;12.47;72.42;100647.72;2095611;28;47175;-60
2022/11/25 03:01:27;;;;;;;;;2.00;2.00;;;;;12.46;72.37;100645.97;2097009;28;46663;-60
2022/11/25 03:02:27;;;;;;;;;2.00;2.00;;;;;12.46;72.32;100641.53;2096424;28;46835;-59
2022/11/25 03:03:27;;;;;;;;;3.00;2.00;;;;;12.46;72.30;100645.97;2096351;28;46603;-59
2022/11/25 03:04:28;;;;;;;;;3.33;2.67;;;;;12.46;72.29;100651.31;2095443;28;46912;-60
2022/11/25 03:05:28;;;;;;;;;4.33;3.00;;;;;12.45;72.39;100644.22;2095977;28;46941;-60
2022/11/25 03:06:29;;;;;;;;;3.00;3.00;;;;;12.45;72.57;100653.09;2095635;28;46659;-59
2022/11/25 03:07:29;;;;;;;;;2.75;2.75;;;;;12.46;72.28;100651.31;2096343;28;46808;-59
2022/11/25 03:08:30;;;;;;;;;1.33;1.33;;;;;12.46;72.45;100656.63;2095176;28;46517;-60
2022/11/25 03:09:30;;;;;;;;;4.00;3.00;;;;;12.45;72.44;100661.09;2096107;28;46420;-61
2022/11/25 03:10:31;;;;;;;;;3.00;2.33;;;;;12.46;72.15;100667.28;2095596;28;46310;-60
2022/11/25 03:12:50;;;;;;;;;3.00;3.00;;;;;12.44;72.22;100667.28;2092889;28;46576;-60
2022/11/25 03:13:50;;;;;;;;;2.00;2.00;;;;;12.43;72.10;100670.88;2094293;28;46347;-59
2022/11/25 03:14:51;;;;;;;;;3.00;2.00;;;;;12.44;72.18;100669.09;2091823;28;46615;-59
2022/11/25 03:15:51;;;;;;;;;3.67;2.00;;;;;12.43;72.24;100670.00;2090257;28;46800;-60
2022/11/25 03:16:51;;;;;;;;;3.00;2.67;;;;;12.42;72.08;100671.78;2090024;28;46238;-60
2022/11/25 03:17:52;;;;;;;;;4.67;2.67;;;;;12.42;72.26;100673.59;2097438;28;46358;-60
2022/11/25 03:18:52;;;;;;;;;3.00;3.00;;;;;12.41;72.31;100663.88;2093703;28;46496;-60
2022/11/25 03:19:53;;;;;;;;;2.00;2.00;;;;;12.43;72.40;100675.31;2097265;28;46357;-59
2022/11/25 03:20:55;;;;;;;;;3.00;3.00;;;;;12.42;72.37;100666.47;2088372;28;45711;-60
2022/11/25 03:21:55;;;;;;;;;3.75;2.75;;;;;12.43;72.35;100676.19;2091046;28;46430;-61
2022/11/25 03:22:56;;;;;;;;;6.00;5.33;;;;;12.43;72.29;100675.31;2094708;28;46217;-57
2022/11/25 03:23:56;;;;;;;;;4.00;3.00;;;;;12.43;72.25;100680.66;2097018;28;46474;-59
2022/11/25 03:24:56;;;;;;;;;5.33;3.00;;;;;12.44;72.33;100680.59;2094748;28;46821;-60
2022/11/25 03:25:57;;;;;;;;;3.67;3.00;;;;;12.45;72.22;100681.47;2097431;28;46368;-60
2022/11/25 03:26:57;;;;;;;;;5.00;4.33;;;;;12.46;72.35;100688.56;2087581;28;46408;-59
2022/11/25 03:27:57;;;;;;;;;4.67;3.33;;;;;12.45;72.09;100685.03;2087657;28;46312;-58
2022/11/25 03:28:58;;;;;;;;;3.00;3.00;;;;;12.45;72.17;100693.03;2094020;28;47038;-59
2022/11/25 03:29:58;;;;;;;;;3.00;2.00;;;;;12.45;72.17;100692.13;2087794;28;46624;-61
2022/11/25 03:30:58;;;;;;;;;3.00;2.67;;;;;12.46;72.17;100697.44;2087679;28;45240;-58
2022/11/25 03:31:59;;;;;;;;;4.67;3.00;;;;;12.46;72.19;100691.22;2091376;28;46529;-60
2022/11/25 03:32:59;;;;;;;;;3.00;2.00;;;;;12.46;72.15;100699.22;2092902;28;46636;-59
2022/11/25 03:33:59;;;;;;;;;4.00;2.67;;;;;12.45;72.07;100703.66;2097051;28;46480;-58
2022/11/25 03:35:00;;;;;;;;;2.00;2.00;;;;;12.46;72.22;100700.09;2094274;28;46390;-60
2022/11/25 03:36:00;;;;;;;;;3.33;2.00;;;;;12.46;72.06;100705.41;2097300;28;46769;-60
2022/11/25 03:37:00;;;;;;;;;4.00;3.00;;;;;12.47;72.12;100709.81;2094986;28;46342;-57
2022/11/25 03:38:00;;;;;;;;;3.00;3.00;;;;;12.48;72.07;100705.34;2097151;28;46287;-58
2022/11/25 03:39:01;;;;;;;;;3.00;2.00;;;;;12.48;72.14;100702.69;2094384;28;46501;-58
2022/11/25 03:40:02;;;;;;;;;2.00;2.00;;;;;12.49;71.83;100712.44;2096760;28;46251;-60
2022/11/25 03:41:02;;;;;;;;;3.75;3.25;;;;;12.48;72.00;100714.22;2094775;28;46437;-59
2022/11/25 03:42:03;;;;;;;;;5.00;3.33;;;;;12.47;71.84;100717.78;2091968;28;46276;-60
2022/11/25 03:43:03;;;;;;;;;3.33;3.00;;;;;12.47;71.96;100727.56;2094136;28;46878;-60
2022/11/25 03:44:04;;;;;;;;;3.00;3.00;;;;;12.46;71.80;100720.50;2096983;28;46732;-60
2022/11/25 03:45:05;;;;;;;;;3.00;3.00;;;;;12.45;71.87;100722.28;2087310;28;46247;-58
2022/11/25 03:46:05;;;;;;;;;3.25;3.25;;;;;12.44;71.98;100717.84;2086943;28;46332;-58
2022/11/25 03:47:06;;;;;;;;;3.00;3.00;;;;;12.45;72.04;100724.06;2094672;28;46844;-60
2022/11/25 03:48:06;;;;;;;;;4.00;2.67;;;;;12.44;71.78;100727.63;2097100;28;45835;-58
2022/11/25 03:49:06;;;;;;;;;4.00;3.00;;;;;12.42;71.87;100727.69;2095435;27;46636;-60
2022/11/25 03:50:08;;;;;;;;;3.33;2.00;;;;;12.42;71.85;100729.47;2096883;28;46773;-59
2022/11/25 03:51:09;;;;;;;;;5.00;5.00;;;;;12.41;71.85;100728.59;2095232;28;46980;-60
2022/11/25 03:52:09;;;;;;;;;3.33;3.00;;;;;12.40;71.82;100729.53;2096611;28;46683;-60
2022/11/25 03:53:10;;;;;;;;;2.00;2.00;;;;;12.38;71.75;100729.56;2095848;28;46621;-61
2022/11/25 03:54:10;;;;;;;;;3.33;2.00;;;;;12.38;71.96;100736.69;2096078;28;46556;-60
2022/11/25 03:55:11;;;;;;;;;5.00;3.33;;;;;12.37;71.87;100726.97;2095728;28;46250;-59
2022/11/25 03:56:12;;;;;;;;;3.00;2.00;;;;;12.35;71.81;100723.47;2095826;28;46936;-60
2022/11/25 03:57:12;;;;;;;;;4.00;1.00;;;;;12.34;71.94;100732.38;2093441;28;46461;-60
2022/11/25 03:58:12;;;;;;;;;3.00;3.00;;;;;12.32;72.06;100729.75;2095555;28;45960;-59
2022/11/25 03:59:13;;;;;;;;;4.00;3.00;;;;;12.33;72.02;100728.84;2095882;28;46639;-60
2022/11/25 04:00:13;;;;;;;;;3.33;2.33;;;;;12.32;71.98;100740.41;2096113;28;45500;-61
2022/11/25 04:01:14;;;;;;;;;4.00;3.00;;;;;12.32;72.10;100735.09;2095867;28;46830;-60
2022/11/25 04:02:14;;;;;;;;;4.00;3.33;;;;;12.33;72.01;100734.16;2095342;28;46140;-60
2022/11/25 04:03:14;;;;;;;;;2.33;2.00;;;;;12.33;72.39;100741.28;2096044;28;46190;-59
2022/11/25 04:04:14;;;;;;;;;5.00;3.00;;;;;12.33;72.12;100739.50;2094872;28;47192;-60
2022/11/25 04:05:15;;;;;;;;;3.33;3.33;;;;;12.35;72.00;100740.31;2095450;28;45170;-59
2022/11/25 04:06:18;;;;;;;;;6.00;3.00;;;;;12.36;71.90;100743.84;2095417;28;46587;-60
2022/11/25 04:07:19;;;;;;;;;4.00;2.75;;;;;12.37;71.92;100745.59;2095177;28;46584;-61
2022/11/25 04:08:20;;;;;;;;;4.00;3.00;;;;;12.36;71.84;100744.72;2095319;28;46028;-61
2022/11/25 04:09:20;;;;;;;;;3.75;3.25;;;;;12.35;71.78;100745.63;2094735;28;46752;-60
2022/11/25 04:10:20;;;;;;;;;3.33;2.00;;;;;12.34;71.91;100743.88;2092448;28;46395;-60
2022/11/25 04:11:21;;;;;;;;;3.00;3.00;;;;;12.33;71.90;100739.50;2095188;28;46203;-59
2022/11/25 04:13:40;;;;;;;;;2.00;2.00;;;;;12.32;71.77;100750.16;2095828;28;46896;-60
2022/11/25 04:14:40;;;;;;;;;4.00;3.00;;;;;12.31;72.06;100759.06;2095242;28;46129;-60
2022/11/25 04:15:48;;;;;;;;;4.33;2.67;;;;;12.29;72.05;100758.22;2102154;27;46413;-59
2022/11/25 04:16:49;;;;;;;;;4.25;3.50;;;;;12.28;71.72;100754.69;2103568;27;46889;-59
2022/11/25 04:17:49;;;;;;;;;5.00;5.00;;;;;12.26;72.13;100750.34;2097143;28;46497;-60
2022/11/25 04:18:50;;;;;;;;;4.33;4.00;;;;;12.25;72.19;100752.13;2092897;28;46553;-60
2022/11/25 04:19:50;;;;;;;;;2.67;2.67;;;;;12.26;72.08;100753.88;2096779;28;46216;-61
2022/11/25 04:20:50;;;;;;;;;5.33;3.00;;;;;12.24;72.19;100758.38;2094474;28;46511;-60
2022/11/25 04:21:51;;;;;;;;;3.33;2.67;;;;;12.24;72.32;100757.50;2104609;27;45709;-61
2022/11/25 04:22:52;;;;;;;;;2.00;2.00;;;;;12.23;72.32;100766.41;2101678;27;46679;-61
2022/11/25 04:23:52;;;;;;;;;5.33;4.00;;;;;12.24;72.27;100762.81;2096412;28;46384;-61
2022/11/25 04:24:52;;;;;;;;;3.67;3.67;;;;;12.25;72.23;100761.91;2093923;28;46720;-59
2022/11/25 04:25:53;;;;;;;;;4.00;4.00;;;;;12.23;72.27;100761.94;2096047;28;46262;-60
2022/11/25 04:26:53;;;;;;;;;7.00;5.00;;;;;12.24;72.36;100760.16;2094244;28;47324;-59
2022/11/25 04:27:53;;;;;;;;;4.00;4.00;;;;;12.23;72.42;100769.94;2096637;28;46298;-59
2022/11/25 04:28:54;;;;;;;;;5.33;4.00;;;;;12.25;72.42;100775.19;2093923;28;47009;-59
2022/11/25 04:29:54;;;;;;;;;3.00;3.00;;;;;12.25;72.57;100769.88;2087602;28;46576;-60
2022/11/25 04:30:54;;;;;;;;;3.00;3.00;;;;;12.27;72.37;100776.03;2086936;28;47469;-59
2022/11/25 04:31:55;;;;;;;;;4.67;4.00;;;;;12.27;72.40;100773.38;2096836;28;45726;-59
2022/11/25 04:32:55;;;;;;;;;4.00;2.33;;;;;12.30;72.37;100775.94;2094368;28;46502;-60
2022/11/25 04:33:55;;;;;;;;;4.67;4.00;;;;;12.30;72.40;100774.16;2096573;28;46318;-60
2022/11/25 04:34:56;;;;;;;;;3.00;3.00;;;;;12.31;72.34;100778.53;2094273;28;46456;-60
2022/11/25 04:35:56;;;;;;;;;3.67;3.00;;;;;12.31;72.33;100778.53;2096566;28;46358;-60
2022/11/25 04:36:56;;;;;;;;;4.33;4.33;;;;;12.32;72.29;100776.75;2094599;28;46053;-60
2022/11/25 04:37:57;;;;;;;;;6.00;4.00;;;;;12.31;72.28;100778.53;2097041;28;46770;-60
2022/11/25 04:38:57;;;;;;;;;6.00;4.67;;;;;12.30;72.26;100782.13;2094009;28;46248;-60
2022/11/25 04:39:57;;;;;;;;;5.00;4.00;;;;;12.31;72.30;100785.66;2096143;28;46718;-60
2022/11/25 04:40:57;;;;;;;;;4.00;4.00;;;;;12.30;72.28;100787.44;2094189;28;46531;-60
2022/11/25 04:43:17;;;;;;;;;3.00;3.00;;;;;12.30;72.41;100794.56;2095983;28;47103;-60
2022/11/25 04:44:17;;;;;;;;;4.00;2.33;;;;;12.29;72.27;100796.34;2094786;28;46168;-60
2022/11/25 04:45:18;;;;;;;;;4.00;4.00;;;;;12.28;72.46;100791.94;2095086;28;46203;-59
2022/11/25 04:46:25;;;;;;;;;3.67;3.67;;;;;12.29;72.41;100799.00;2091510;28;46718;-61
2022/11/25 04:47:25;;;;;;;;;3.75;3.75;;;;;12.31;72.49;100801.63;2095677;28;46603;-60
2022/11/25 04:48:25;;;;;;;;;4.00;4.00;;;;;12.31;72.33;100797.19;2094752;28;45176;-61
2022/11/25 04:49:26;;;;;;;;;2.00;2.00;;;;;12.31;72.36;100799.84;2095860;28;46294;-61
2022/11/25 04:50:26;;;;;;;;;4.00;4.00;;;;;12.31;72.37;100794.50;2094931;28;47367;-59
2022/11/25 04:51:26;;;;;;;;;4.33;4.33;;;;;12.32;72.50;100793.63;2095806;28;46816;-60
2022/11/25 04:52:27;;;;;;;;;2.33;2.33;;;;;12.32;72.29;100800.72;2095033;28;46359;-60
2022/11/25 04:53:27;;;;;;;;;4.00;4.00;;;;;12.32;72.40;100803.38;2094888;28;46815;-58
2022/11/25 04:54:27;;;;;;;;;7.33;5.00;;;;;12.31;72.29;100802.50;2094959;28;46643;-59
2022/11/25 04:55:28;;;;;;;;;5.00;3.33;;;;;12.31;72.15;100809.59;2095089;28;46374;-60